sensor_id;sensor_type;location;lat;lon;timestamp;pressure;altitude;pressure_sealevel;temperature;humidity
34065;BME280;20339;49.754;20.158;2022-09-01T00:01:14;97006.57;;;11.87;81.56
34065;BME280;20339;49.754;20.158;2022-09-01T00:03:49;97005.70;;;11.78;81.81
34065;BME280;20339;49.754;20.158;2022-09-01T00:06:22;97009.55;;;11.73;82.09
34065;BME280;20339;49.754;20.158;2022-09-01T00:08:55;97005.15;;;11.61;82.33
34065;BME280;20339;49.754;20.158;2022-09-01T00:11:27;97006.74;;;11.55;82.73
34065;BME280;20339;49.754;20.158;2022-09-01T00:14:02;97005.90;;;11.50;82.98
34065;BME280;20339;49.754;20.158;2022-09-01T00:16:35;97007.02;;;11.50;82.95
34065;BME280;20339;49.754;20.158;2022-09-01T00:19:09;97006.84;;;11.57;83.36
34065;BME280;20339;49.754;20.158;2022-09-01T00:21:42;97007.30;;;11.66;83.47
34065;BME280;20339;49.754;20.158;2022-09-01T00:24:15;97008.41;;;11.70;83.19
34065;BME280;20339;49.754;20.158;2022-09-01T00:26:47;97006.70;;;11.79;83.39
34065;BME280;20339;49.754;20.158;2022-09-01T00:29:21;97012.13;;;11.90;83.30
34065;BME280;20339;49.754;20.158;2022-09-01T00:31:53;97008.73;;;11.95;83.10
34065;BME280;20339;49.754;20.158;2022-09-01T00:34:24;97002.84;;;11.97;82.83
34065;BME280;20339;49.754;20.158;2022-09-01T00:36:55;97004.23;;;11.88;82.26
34065;BME280;20339;49.754;20.158;2022-09-01T00:39:26;97004.94;;;11.85;82.19
34065;BME280;20339;49.754;20.158;2022-09-01T00:41:58;97004.91;;;11.89;82.56
34065;BME280;20339;49.754;20.158;2022-09-01T00:44:29;96995.23;;;11.97;82.77
34065;BME280;20339;49.754;20.158;2022-09-01T00:47:01;96998.33;;;11.88;82.35
34065;BME280;20339;49.754;20.158;2022-09-01T00:49:35;96999.25;;;11.72;82.46
34065;BME280;20339;49.754;20.158;2022-09-01T00:52:13;97002.89;;;11.65;82.79
34065;BME280;20339;49.754;20.158;2022-09-01T00:54:46;96999.20;;;11.72;83.48
34065;BME280;20339;49.754;20.158;2022-09-01T00:57:19;96998.73;;;11.82;83.37
34065;BME280;20339;49.754;20.158;2022-09-01T00:59:53;96998.91;;;11.76;82.94
34065;BME280;20339;49.754;20.158;2022-09-01T01:02:27;97000.33;;;11.72;83.14
34065;BME280;20339;49.754;20.158;2022-09-01T01:04:58;96996.68;;;11.75;83.33
34065;BME280;20339;49.754;20.158;2022-09-01T01:07:31;96995.98;;;11.77;83.41
34065;BME280;20339;49.754;20.158;2022-09-01T01:10:14;96995.98;;;11.78;83.50
34065;BME280;20339;49.754;20.158;2022-09-01T01:12:45;96990.81;;;11.61;83.47
34065;BME280;20339;49.754;20.158;2022-09-01T01:15:19;96994.20;;;11.45;83.83
34065;BME280;20339;49.754;20.158;2022-09-01T01:17:53;96991.49;;;11.35;84.04
34065;BME280;20339;49.754;20.158;2022-09-01T01:20:27;96988.29;;;11.37;84.36
34065;BME280;20339;49.754;20.158;2022-09-01T01:23:23;96985.60;;;11.46;84.56
34065;BME280;20339;49.754;20.158;2022-09-01T01:25:56;96985.88;;;11.45;84.36
34065;BME280;20339;49.754;20.158;2022-09-01T01:28:29;96987.39;;;11.40;84.36
34065;BME280;20339;49.754;20.158;2022-09-01T01:31:06;96987.06;;;11.41;84.56
34065;BME280;20339;49.754;20.158;2022-09-01T01:33:44;96983.89;;;11.40;84.58
34065;BME280;20339;49.754;20.158;2022-09-01T01:36:18;96980.64;;;11.30;84.74
34065;BME280;20339;49.754;20.158;2022-09-01T01:38:54;96980.55;;;11.23;84.99
34065;BME280;20339;49.754;20.158;2022-09-01T01:41:31;96977.41;;;11.17;85.25
34065;BME280;20339;49.754;20.158;2022-09-01T01:44:04;96975.58;;;11.13;85.49
34065;BME280;20339;49.754;20.158;2022-09-01T01:46:38;96973.51;;;11.12;85.53
34065;BME280;20339;49.754;20.158;2022-09-01T01:49:12;96977.31;;;11.15;85.49
34065;BME280;20339;49.754;20.158;2022-09-01T01:51:49;96977.48;;;11.25;85.64
34065;BME280;20339;49.754;20.158;2022-09-01T01:54:25;96975.68;;;11.34;85.62
34065;BME280;20339;49.754;20.158;2022-09-01T01:57:01;96981.55;;;11.40;85.55
34065;BME280;20339;49.754;20.158;2022-09-01T01:59:34;96981.32;;;11.33;85.36
34065;BME280;20339;49.754;20.158;2022-09-01T02:02:07;96977.81;;;11.32;85.48
34065;BME280;20339;49.754;20.158;2022-09-01T02:04:43;96977.02;;;11.43;85.60
34065;BME280;20339;49.754;20.158;2022-09-01T02:07:14;96979.19;;;11.51;85.47
34065;BME280;20339;49.754;20.158;2022-09-01T02:09:46;96975.23;;;11.57;85.41
34065;BME280;20339;49.754;20.158;2022-09-01T02:12:17;96976.48;;;11.62;85.12
34065;BME280;20339;49.754;20.158;2022-09-01T02:14:49;96975.45;;;11.55;84.57
34065;BME280;20339;49.754;20.158;2022-09-01T02:17:23;96976.38;;;11.49;84.78
34065;BME280;20339;49.754;20.158;2022-09-01T02:19:55;96975.42;;;11.50;84.99
34065;BME280;20339;49.754;20.158;2022-09-01T02:22:26;96973.25;;;11.50;84.74
34065;BME280;20339;49.754;20.158;2022-09-01T02:24:58;96971.23;;;11.49;84.80
34065;BME280;20339;49.754;20.158;2022-09-01T02:27:29;96972.88;;;11.41;84.68
34065;BME280;20339;49.754;20.158;2022-09-01T02:30:03;96970.35;;;11.30;84.89
34065;BME280;20339;49.754;20.158;2022-09-01T02:32:39;96967.20;;;11.21;85.23
34065;BME280;20339;49.754;20.158;2022-09-01T02:35:11;96968.60;;;11.18;85.33
34065;BME280;20339;49.754;20.158;2022-09-01T02:37:43;96967.79;;;11.18;85.43
34065;BME280;20339;49.754;20.158;2022-09-01T02:40:15;96968.88;;;11.25;85.62
34065;BME280;20339;49.754;20.158;2022-09-01T02:42:46;96971.73;;;11.36;85.74
34065;BME280;20339;49.754;20.158;2022-09-01T02:45:21;96973.08;;;11.45;85.82
34065;BME280;20339;49.754;20.158;2022-09-01T02:47:53;96974.99;;;11.51;85.58
34065;BME280;20339;49.754;20.158;2022-09-01T02:50:26;96969.94;;;11.52;85.58
34065;BME280;20339;49.754;20.158;2022-09-01T02:52:57;96972.59;;;11.52;85.41
34065;BME280;20339;49.754;20.158;2022-09-01T02:55:30;96970.41;;;11.54;85.49
34065;BME280;20339;49.754;20.158;2022-09-01T02:58:02;96972.15;;;11.47;85.17
34065;BME280;20339;49.754;20.158;2022-09-01T03:00:33;96972.14;;;11.43;85.26
34065;BME280;20339;49.754;20.158;2022-09-01T03:03:08;96967.26;;;11.41;85.16
34065;BME280;20339;49.754;20.158;2022-09-01T03:05:41;96967.41;;;11.32;84.97
34065;BME280;20339;49.754;20.158;2022-09-01T03:08:13;96968.27;;;11.30;85.12
34065;BME280;20339;49.754;20.158;2022-09-01T03:10:45;96969.72;;;11.35;85.46
34065;BME280;20339;49.754;20.158;2022-09-01T03:13:18;96973.81;;;11.45;85.70
34065;BME280;20339;49.754;20.158;2022-09-01T03:15:50;96975.36;;;11.54;85.73
34065;BME280;20339;49.754;20.158;2022-09-01T03:18:21;96974.66;;;11.62;85.82
34065;BME280;20339;49.754;20.158;2022-09-01T03:20:52;96970.49;;;11.66;85.66
34065;BME280;20339;49.754;20.158;2022-09-01T03:23:24;96971.83;;;11.65;85.48
34065;BME280;20339;49.754;20.158;2022-09-01T03:25:57;96967.30;;;11.62;85.30
34065;BME280;20339;49.754;20.158;2022-09-01T03:28:29;96968.14;;;11.46;85.13
34065;BME280;20339;49.754;20.158;2022-09-01T03:31:00;96966.20;;;11.20;85.42
34065;BME280;20339;49.754;20.158;2022-09-01T03:33:31;96967.91;;;11.05;85.94
34065;BME280;20339;49.754;20.158;2022-09-01T03:36:03;96971.44;;;11.01;86.28
34065;BME280;20339;49.754;20.158;2022-09-01T03:38:35;96970.04;;;11.04;86.44
34065;BME280;20339;49.754;20.158;2022-09-01T03:41:06;96974.34;;;11.12;86.57
34065;BME280;20339;49.754;20.158;2022-09-01T03:43:37;96978.16;;;11.23;86.70
34065;BME280;20339;49.754;20.158;2022-09-01T03:46:09;96976.55;;;11.32;86.73
34065;BME280;20339;49.754;20.158;2022-09-01T03:48:45;96978.67;;;11.38;86.87
34065;BME280;20339;49.754;20.158;2022-09-01T03:51:18;96977.66;;;11.42;86.67
34065;BME280;20339;49.754;20.158;2022-09-01T03:53:52;96977.62;;;11.38;86.54
34065;BME280;20339;49.754;20.158;2022-09-01T03:56:26;96975.71;;;11.27;86.52
34065;BME280;20339;49.754;20.158;2022-09-01T03:58:59;96976.04;;;11.13;86.64
34065;BME280;20339;49.754;20.158;2022-09-01T04:01:31;96974.45;;;11.02;86.79
34065;BME280;20339;49.754;20.158;2022-09-01T04:04:06;96972.62;;;10.93;87.14
34065;BME280;20339;49.754;20.158;2022-09-01T04:06:38;96971.99;;;10.92;87.31
34065;BME280;20339;49.754;20.158;2022-09-01T04:09:10;96970.02;;;10.92;87.41
34065;BME280;20339;49.754;20.158;2022-09-01T04:11:41;96972.14;;;10.93;87.46
34065;BME280;20339;49.754;20.158;2022-09-01T04:14:15;96968.84;;;10.95;87.41
34065;BME280;20339;49.754;20.158;2022-09-01T04:16:46;96968.77;;;10.97;87.41
34065;BME280;20339;49.754;20.158;2022-09-01T04:19:36;96969.73;;;11.03;87.59
34065;BME280;20339;49.754;20.158;2022-09-01T04:22:08;96970.60;;;11.12;87.59
34065;BME280;20339;49.754;20.158;2022-09-01T04:24:42;96969.46;;;11.11;87.15
34065;BME280;20339;49.754;20.158;2022-09-01T04:27:15;96968.20;;;11.09;87.06
34065;BME280;20339;49.754;20.158;2022-09-01T04:29:52;96965.89;;;11.06;87.02
34065;BME280;20339;49.754;20.158;2022-09-01T04:32:25;96963.40;;;11.05;87.07
34065;BME280;20339;49.754;20.158;2022-09-01T04:34:57;96967.64;;;11.05;87.11
34065;BME280;20339;49.754;20.158;2022-09-01T04:37:29;96968.13;;;11.04;87.16
34065;BME280;20339;49.754;20.158;2022-09-01T04:40:00;96963.95;;;11.01;87.18
34065;BME280;20339;49.754;20.158;2022-09-01T04:42:31;96965.23;;;10.98;87.24
34065;BME280;20339;49.754;20.158;2022-09-01T04:45:07;96963.63;;;10.96;87.33
34065;BME280;20339;49.754;20.158;2022-09-01T04:47:42;96966.23;;;11.01;87.35
34065;BME280;20339;49.754;20.158;2022-09-01T04:50:15;96963.80;;;11.10;87.27
34065;BME280;20339;49.754;20.158;2022-09-01T04:52:49;96970.33;;;11.20;87.33
34065;BME280;20339;49.754;20.158;2022-09-01T04:55:20;96975.35;;;11.27;87.22
34065;BME280;20339;49.754;20.158;2022-09-01T04:57:53;96975.23;;;11.26;86.97
34065;BME280;20339;49.754;20.158;2022-09-01T05:00:26;96969.35;;;11.27;87.08
34065;BME280;20339;49.754;20.158;2022-09-01T05:03:03;96969.47;;;11.35;87.08
34065;BME280;20339;49.754;20.158;2022-09-01T05:05:39;96974.08;;;11.35;86.99
34065;BME280;20339;49.754;20.158;2022-09-01T05:08:16;96980.96;;;11.39;87.11
34065;BME280;20339;49.754;20.158;2022-09-01T05:10:50;96980.23;;;11.48;87.17
34065;BME280;20339;49.754;20.158;2022-09-01T05:13:24;96982.61;;;11.49;86.81
34065;BME280;20339;49.754;20.158;2022-09-01T05:16:02;96986.79;;;11.31;86.35
34065;BME280;20339;49.754;20.158;2022-09-01T05:18:34;96984.78;;;11.17;86.64
34065;BME280;20339;49.754;20.158;2022-09-01T05:21:07;96986.80;;;11.26;87.25
34065;BME280;20339;49.754;20.158;2022-09-01T05:23:40;96989.66;;;11.51;87.47
34065;BME280;20339;49.754;20.158;2022-09-01T05:26:15;96990.71;;;11.88;87.55
34065;BME280;20339;49.754;20.158;2022-09-01T05:28:49;96991.10;;;12.81;88.46
34065;BME280;20339;49.754;20.158;2022-09-01T05:31:23;96989.14;;;14.53;88.83
34065;BME280;20339;49.754;20.158;2022-09-01T05:34:01;96984.71;;;16.96;87.49
34065;BME280;20339;49.754;20.158;2022-09-01T05:36:33;96980.45;;;18.97;83.63
34065;BME280;20339;49.754;20.158;2022-09-01T05:39:06;96978.73;;;20.62;79.48
34065;BME280;20339;49.754;20.158;2022-09-01T05:41:40;96974.61;;;21.79;74.83
34065;BME280;20339;49.754;20.158;2022-09-01T05:44:11;96981.29;;;22.65;70.51
34065;BME280;20339;49.754;20.158;2022-09-01T05:46:43;96986.52;;;23.29;67.42
34065;BME280;20339;49.754;20.158;2022-09-01T05:49:15;96981.94;;;23.98;65.11
34065;BME280;20339;49.754;20.158;2022-09-01T05:51:49;96988.39;;;24.42;61.25
34065;BME280;20339;49.754;20.158;2022-09-01T05:54:23;96992.23;;;24.48;58.58
34065;BME280;20339;49.754;20.158;2022-09-01T05:56:56;96996.31;;;24.68;57.87
34065;BME280;20339;49.754;20.158;2022-09-01T05:59:28;96994.94;;;24.96;55.20
34065;BME280;20339;49.754;20.158;2022-09-01T06:02:00;96998.60;;;25.05;52.55
34065;BME280;20339;49.754;20.158;2022-09-01T06:04:32;96997.32;;;24.72;50.57
34065;BME280;20339;49.754;20.158;2022-09-01T06:07:04;96996.86;;;24.60;49.55
34065;BME280;20339;49.754;20.158;2022-09-01T06:09:39;97000.14;;;24.69;49.86
34065;BME280;20339;49.754;20.158;2022-09-01T06:12:12;96997.69;;;25.16;50.17
34065;BME280;20339;49.754;20.158;2022-09-01T06:14:51;96998.70;;;26.01;49.56
34065;BME280;20339;49.754;20.158;2022-09-01T06:17:24;96998.48;;;26.15;46.83
34065;BME280;20339;49.754;20.158;2022-09-01T06:19:56;97001.95;;;25.94;44.89
34065;BME280;20339;49.754;20.158;2022-09-01T06:22:28;97001.46;;;25.65;44.32
34065;BME280;20339;49.754;20.158;2022-09-01T06:25:00;97007.98;;;25.39;44.29
34065;BME280;20339;49.754;20.158;2022-09-01T06:27:37;97008.84;;;25.45;44.00
34065;BME280;20339;49.754;20.158;2022-09-01T06:30:13;97010.65;;;24.44;44.29
34065;BME280;20339;49.754;20.158;2022-09-01T06:32:49;97013.27;;;23.59;44.82
34065;BME280;20339;49.754;20.158;2022-09-01T06:35:21;97011.41;;;22.31;46.39
34065;BME280;20339;49.754;20.158;2022-09-01T06:37:58;97011.31;;;20.94;48.03
34065;BME280;20339;49.754;20.158;2022-09-01T06:40:30;97013.91;;;19.95;49.98
34065;BME280;20339;49.754;20.158;2022-09-01T06:43:02;97018.72;;;19.12;51.76
34065;BME280;20339;49.754;20.158;2022-09-01T06:45:40;97024.18;;;18.73;53.44
34065;BME280;20339;49.754;20.158;2022-09-01T06:48:12;97021.04;;;18.12;54.44
34065;BME280;20339;49.754;20.158;2022-09-01T06:50:44;97023.61;;;17.60;56.38
34065;BME280;20339;49.754;20.158;2022-09-01T06:53:16;97026.45;;;17.32;56.95
34065;BME280;20339;49.754;20.158;2022-09-01T06:55:50;97033.74;;;17.08;58.77
34065;BME280;20339;49.754;20.158;2022-09-01T06:58:22;97034.98;;;16.96;59.62
34065;BME280;20339;49.754;20.158;2022-09-01T07:00:53;97035.19;;;16.53;60.59
34065;BME280;20339;49.754;20.158;2022-09-01T07:03:26;97031.63;;;16.11;61.77
34065;BME280;20339;49.754;20.158;2022-09-01T07:05:57;97028.48;;;16.31;62.72
34065;BME280;20339;49.754;20.158;2022-09-01T07:08:31;97029.45;;;16.56;62.69
34065;BME280;20339;49.754;20.158;2022-09-01T07:11:16;97028.61;;;16.71;62.50
34065;BME280;20339;49.754;20.158;2022-09-01T07:13:58;97027.80;;;17.03;62.44
34065;BME280;20339;49.754;20.158;2022-09-01T07:16:33;97026.67;;;16.84;62.56
34065;BME280;20339;49.754;20.158;2022-09-01T07:19:10;97029.36;;;17.66;63.31
34065;BME280;20339;49.754;20.158;2022-09-01T07:21:44;97026.53;;;19.60;60.96
34065;BME280;20339;49.754;20.158;2022-09-01T07:24:15;97020.45;;;21.07;56.89
34065;BME280;20339;49.754;20.158;2022-09-01T07:26:48;97017.55;;;22.49;56.77
34065;BME280;20339;49.754;20.158;2022-09-01T07:29:20;97010.63;;;24.83;54.77
34065;BME280;20339;49.754;20.158;2022-09-01T07:31:54;97011.69;;;27.10;49.38
34065;BME280;20339;49.754;20.158;2022-09-01T07:34:26;97014.23;;;27.56;44.55
34065;BME280;20339;49.754;20.158;2022-09-01T07:36:57;97006.61;;;28.92;46.44
34065;BME280;20339;49.754;20.158;2022-09-01T07:39:29;97003.49;;;30.72;43.82
34065;BME280;20339;49.754;20.158;2022-09-01T07:42:00;97005.05;;;31.02;39.96
34065;BME280;20339;49.754;20.158;2022-09-01T07:44:39;97006.48;;;31.50;39.00
34065;BME280;20339;49.754;20.158;2022-09-01T07:47:10;97008.25;;;31.14;36.42
34065;BME280;20339;49.754;20.158;2022-09-01T07:49:44;97010.15;;;31.23;34.41
34065;BME280;20339;49.754;20.158;2022-09-01T07:52:15;97006.95;;;31.08;36.37
34065;BME280;20339;49.754;20.158;2022-09-01T07:54:46;97006.95;;;31.67;33.15
34065;BME280;20339;49.754;20.158;2022-09-01T07:57:17;97008.35;;;30.88;32.11
34065;BME280;20339;49.754;20.158;2022-09-01T07:59:51;97001.22;;;29.86;33.42
34065;BME280;20339;49.754;20.158;2022-09-01T08:02:24;97007.18;;;29.78;34.32
34065;BME280;20339;49.754;20.158;2022-09-01T08:04:57;97008.09;;;30.77;36.06
34065;BME280;20339;49.754;20.158;2022-09-01T08:07:29;97005.06;;;31.31;31.89
34065;BME280;20339;49.754;20.158;2022-09-01T08:10:00;97005.39;;;30.86;33.60
34065;BME280;20339;49.754;20.158;2022-09-01T08:12:32;97005.02;;;31.93;34.47
34065;BME280;20339;49.754;20.158;2022-09-01T08:15:04;97005.76;;;33.50;33.94
34065;BME280;20339;49.754;20.158;2022-09-01T08:17:37;97003.23;;;34.57;33.42
34065;BME280;20339;49.754;20.158;2022-09-01T08:20:11;96999.11;;;35.62;32.70
34065;BME280;20339;49.754;20.158;2022-09-01T08:22:42;97002.03;;;36.29;30.53
34065;BME280;20339;49.754;20.158;2022-09-01T08:25:13;96999.44;;;35.83;28.40
34065;BME280;20339;49.754;20.158;2022-09-01T08:27:45;96999.05;;;34.29;27.13
34065;BME280;20339;49.754;20.158;2022-09-01T08:30:19;97005.48;;;32.52;28.47
34065;BME280;20339;49.754;20.158;2022-09-01T08:32:50;97007.39;;;32.34;31.19
34065;BME280;20339;49.754;20.158;2022-09-01T08:35:21;97007.08;;;33.56;31.39
34065;BME280;20339;49.754;20.158;2022-09-01T08:37:53;97008.49;;;34.82;31.32
34065;BME280;20339;49.754;20.158;2022-09-01T08:40:24;97008.36;;;35.58;29.07
34065;BME280;20339;49.754;20.158;2022-09-01T08:43:03;97012.52;;;35.83;29.34
34065;BME280;20339;49.754;20.158;2022-09-01T08:45:41;97013.27;;;35.88;27.68
34065;BME280;20339;49.754;20.158;2022-09-01T08:48:18;97015.92;;;35.43;28.23
34065;BME280;20339;49.754;20.158;2022-09-01T08:50:55;97017.31;;;35.68;29.32
34065;BME280;20339;49.754;20.158;2022-09-01T08:53:34;97016.65;;;35.40;26.17
34065;BME280;20339;49.754;20.158;2022-09-01T08:56:10;97020.64;;;33.64;26.27
34065;BME280;20339;49.754;20.158;2022-09-01T08:58:42;97021.21;;;31.96;27.77
34065;BME280;20339;49.754;20.158;2022-09-01T09:01:19;97017.62;;;30.68;28.97
34065;BME280;20339;49.754;20.158;2022-09-01T09:04:08;97020.57;;;29.96;31.56
34065;BME280;20339;49.754;20.158;2022-09-01T09:06:50;97025.20;;;29.63;30.48
34065;BME280;20339;49.754;20.158;2022-09-01T09:09:36;97024.40;;;28.00;33.40
34065;BME280;20339;49.754;20.158;2022-09-01T09:15:18;97013.83;;;27.87;36.32
34065;BME280;20339;49.754;20.158;2022-09-01T09:17:54;97020.48;;;27.69;35.95
34065;BME280;20339;49.754;20.158;2022-09-01T09:20:30;97019.78;;;26.30;36.34
34065;BME280;20339;49.754;20.158;2022-09-01T09:23:01;97016.81;;;25.39;37.33
34065;BME280;20339;49.754;20.158;2022-09-01T09:25:39;97016.18;;;24.91;38.46
34065;BME280;20339;49.754;20.158;2022-09-01T09:28:10;97018.65;;;24.07;39.06
34065;BME280;20339;49.754;20.158;2022-09-01T09:30:41;97024.23;;;23.19;39.59
34065;BME280;20339;49.754;20.158;2022-09-01T09:33:34;97018.25;;;22.64;41.42
34065;BME280;20339;49.754;20.158;2022-09-01T09:36:19;97017.66;;;22.56;41.81
34065;BME280;20339;49.754;20.158;2022-09-01T09:39:05;97011.44;;;22.17;42.72
34065;BME280;20339;49.754;20.158;2022-09-01T09:41:37;97014.36;;;22.25;43.48
34065;BME280;20339;49.754;20.158;2022-09-01T09:44:20;97009.83;;;22.32;43.75
34065;BME280;20339;49.754;20.158;2022-09-01T09:46:54;97016.39;;;22.52;43.78
34065;BME280;20339;49.754;20.158;2022-09-01T09:49:28;97015.10;;;22.85;43.97
34065;BME280;20339;49.754;20.158;2022-09-01T09:52:17;97019.40;;;22.95;43.66
34065;BME280;20339;49.754;20.158;2022-09-01T09:55:03;97018.44;;;22.82;43.53
34065;BME280;20339;49.754;20.158;2022-09-01T09:57:39;97016.00;;;22.78;43.95
34065;BME280;20339;49.754;20.158;2022-09-01T10:00:20;97014.38;;;22.81;44.18
34065;BME280;20339;49.754;20.158;2022-09-01T10:02:56;97018.30;;;22.66;43.88
34065;BME280;20339;49.754;20.158;2022-09-01T10:05:36;97011.54;;;22.49;43.44
34065;BME280;20339;49.754;20.158;2022-09-01T10:08:09;97011.79;;;22.35;43.95
34065;BME280;20339;49.754;20.158;2022-09-01T10:10:43;97009.14;;;22.38;42.44
34065;BME280;20339;49.754;20.158;2022-09-01T10:13:17;97007.52;;;21.84;43.09
34065;BME280;20339;49.754;20.158;2022-09-01T10:15:52;97009.58;;;21.59;43.10
34065;BME280;20339;49.754;20.158;2022-09-01T10:18:25;97014.73;;;21.37;44.31
34065;BME280;20339;49.754;20.158;2022-09-01T10:21:01;97005.48;;;21.52;44.31
34065;BME280;20339;49.754;20.158;2022-09-01T10:23:35;97004.45;;;21.64;44.53
34065;BME280;20339;49.754;20.158;2022-09-01T10:26:14;97009.30;;;21.48;44.05
34065;BME280;20339;49.754;20.158;2022-09-01T10:28:53;97003.60;;;21.48;44.37
34065;BME280;20339;49.754;20.158;2022-09-01T10:31:26;97000.39;;;21.70;44.85
34065;BME280;20339;49.754;20.158;2022-09-01T10:33:59;97004.13;;;21.83;44.95
34065;BME280;20339;49.754;20.158;2022-09-01T10:36:32;97003.23;;;21.80;44.72
34065;BME280;20339;49.754;20.158;2022-09-01T10:39:06;97005.70;;;21.74;44.57
34065;BME280;20339;49.754;20.158;2022-09-01T10:41:52;97004.69;;;21.72;45.61
34065;BME280;20339;49.754;20.158;2022-09-01T10:44:28;97000.23;;;21.96;44.79
34065;BME280;20339;49.754;20.158;2022-09-01T10:47:07;96996.15;;;21.75;44.34
34065;BME280;20339;49.754;20.158;2022-09-01T10:50:00;97000.89;;;21.45;44.69
34065;BME280;20339;49.754;20.158;2022-09-01T10:52:54;97001.05;;;21.35;45.42
34065;BME280;20339;49.754;20.158;2022-09-01T10:55:44;96999.38;;;21.29;45.43
34065;BME280;20339;49.754;20.158;2022-09-01T10:58:38;97000.40;;;20.89;45.25
34065;BME280;20339;49.754;20.158;2022-09-01T11:01:13;97000.26;;;20.53;45.12
34065;BME280;20339;49.754;20.158;2022-09-01T11:03:54;96994.82;;;20.26;45.70
34065;BME280;20339;49.754;20.158;2022-09-01T11:09:39;96992.03;;;20.34;46.83
34065;BME280;20339;49.754;20.158;2022-09-01T11:12:45;96991.59;;;20.52;46.58
34065;BME280;20339;49.754;20.158;2022-09-01T11:15:38;96989.52;;;20.39;45.85
34065;BME280;20339;49.754;20.158;2022-09-01T11:18:15;96988.22;;;20.28;47.29
34065;BME280;20339;49.754;20.158;2022-09-01T11:20:49;96991.66;;;20.26;46.68
34065;BME280;20339;49.754;20.158;2022-09-01T11:23:26;96990.96;;;20.04;46.72
34065;BME280;20339;49.754;20.158;2022-09-01T11:26:00;96994.08;;;19.97;47.74
34065;BME280;20339;49.754;20.158;2022-09-01T11:28:42;96995.89;;;20.02;47.94
34065;BME280;20339;49.754;20.158;2022-09-01T11:31:33;96992.81;;;20.04;48.32
34065;BME280;20339;49.754;20.158;2022-09-01T11:34:16;96994.73;;;20.04;47.85
34065;BME280;20339;49.754;20.158;2022-09-01T11:36:53;96989.23;;;20.07;48.59
34065;BME280;20339;49.754;20.158;2022-09-01T11:39:32;96989.88;;;20.16;48.39
34065;BME280;20339;49.754;20.158;2022-09-01T11:42:10;96985.67;;;20.08;47.63
34065;BME280;20339;49.754;20.158;2022-09-01T11:44:47;96984.28;;;19.77;48.02
34065;BME280;20339;49.754;20.158;2022-09-01T11:47:24;96981.83;;;19.83;48.55
34065;BME280;20339;49.754;20.158;2022-09-01T11:49:58;96978.30;;;20.07;47.89
34065;BME280;20339;49.754;20.158;2022-09-01T11:52:34;96976.81;;;20.24;47.48
34065;BME280;20339;49.754;20.158;2022-09-01T11:55:08;96976.19;;;20.26;47.80
34065;BME280;20339;49.754;20.158;2022-09-01T11:57:41;96975.30;;;20.31;47.69
34065;BME280;20339;49.754;20.158;2022-09-01T12:00:16;96974.81;;;20.21;46.97
34065;BME280;20339;49.754;20.158;2022-09-01T12:02:54;96975.13;;;20.19;47.18
34065;BME280;20339;49.754;20.158;2022-09-01T12:05:29;96975.73;;;20.28;47.59
34065;BME280;20339;49.754;20.158;2022-09-01T12:08:03;96974.06;;;20.24;47.18
34065;BME280;20339;49.754;20.158;2022-09-01T12:10:36;96974.63;;;20.11;47.11
34065;BME280;20339;49.754;20.158;2022-09-01T12:13:10;96972.23;;;19.98;47.45
34065;BME280;20339;49.754;20.158;2022-09-01T12:15:42;96976.80;;;19.93;47.67
34065;BME280;20339;49.754;20.158;2022-09-01T12:18:17;96972.84;;;19.94;48.24
34065;BME280;20339;49.754;20.158;2022-09-01T12:20:51;96973.02;;;19.95;48.25
34065;BME280;20339;49.754;20.158;2022-09-01T12:23:29;96969.56;;;19.95;48.14
34065;BME280;20339;49.754;20.158;2022-09-01T12:26:04;96970.95;;;19.90;48.16
34065;BME280;20339;49.754;20.158;2022-09-01T12:28:36;96970.41;;;19.84;48.03
34065;BME280;20339;49.754;20.158;2022-09-01T12:31:17;96970.71;;;19.82;48.55
34065;BME280;20339;49.754;20.158;2022-09-01T12:33:50;96969.77;;;19.75;48.36
34065;BME280;20339;49.754;20.158;2022-09-01T12:36:25;96968.89;;;19.68;48.11
34065;BME280;20339;49.754;20.158;2022-09-01T12:39:22;96968.28;;;19.66;48.73
34065;BME280;20339;49.754;20.158;2022-09-01T12:42:07;96967.34;;;19.55;48.03
34065;BME280;20339;49.754;20.158;2022-09-01T12:44:47;96968.85;;;19.47;47.96
34065;BME280;20339;49.754;20.158;2022-09-01T12:47:46;96970.85;;;19.43;47.98
34065;BME280;20339;49.754;20.158;2022-09-01T12:50:44;96969.91;;;19.46;47.72
34065;BME280;20339;49.754;20.158;2022-09-01T12:53:22;96967.63;;;19.51;48.29
34065;BME280;20339;49.754;20.158;2022-09-01T12:56:04;96963.77;;;19.60;48.09
34065;BME280;20339;49.754;20.158;2022-09-01T12:58:36;96962.16;;;19.65;47.02
34065;BME280;20339;49.754;20.158;2022-09-01T13:01:07;96960.88;;;19.47;47.80
34065;BME280;20339;49.754;20.158;2022-09-01T13:06:51;96949.85;;;19.52;46.24
34065;BME280;20339;49.754;20.158;2022-09-01T13:09:23;96954.96;;;19.43;47.22
34065;BME280;20339;49.754;20.158;2022-09-01T13:12:00;96953.54;;;19.54;47.00
34065;BME280;20339;49.754;20.158;2022-09-01T13:14:38;96960.90;;;19.24;45.86
34065;BME280;20339;49.754;20.158;2022-09-01T13:17:09;96968.45;;;18.99;46.79
34065;BME280;20339;49.754;20.158;2022-09-01T13:19:41;96973.59;;;19.03;47.64
34065;BME280;20339;49.754;20.158;2022-09-01T13:22:12;96976.45;;;19.00;47.88
34065;BME280;20339;49.754;20.158;2022-09-01T13:24:46;96973.27;;;18.92;48.51
34065;BME280;20339;49.754;20.158;2022-09-01T13:27:19;96970.27;;;18.85;48.40
34065;BME280;20339;49.754;20.158;2022-09-01T13:29:52;96970.33;;;18.77;48.16
34065;BME280;20339;49.754;20.158;2022-09-01T13:32:23;96972.13;;;18.62;47.97
34065;BME280;20339;49.754;20.158;2022-09-01T13:34:57;96969.59;;;18.51;47.86
34065;BME280;20339;49.754;20.158;2022-09-01T13:37:28;96971.23;;;18.43;48.07
34065;BME280;20339;49.754;20.158;2022-09-01T13:40:00;96971.91;;;18.40;47.94